createdAt,value
2022-10-31T00:01:18.212Z,98493.25
2022-10-31T00:03:45.029Z,98487.09
2022-10-31T00:06:11.735Z,98497.47
2022-10-31T00:08:38.343Z,98494.97
2022-10-31T00:11:09.013Z,98494.38
2022-10-31T00:13:35.716Z,98496.34
2022-10-31T00:16:02.395Z,98501.25
2022-10-31T00:18:29.033Z,98491.03
2022-10-31T00:21:03.151Z,98494.53
2022-10-31T00:23:30.174Z,98496.34
2022-10-31T00:26:04.377Z,98494.94
2022-10-31T00:28:31.482Z,98486.03
2022-10-31T00:31:06.808Z,98488.66
2022-10-31T00:33:38.598Z,98490.22
2022-10-31T00:36:07.370Z,98497.50
2022-10-31T00:38:34.230Z,98486.13
2022-10-31T00:41:00.904Z,98487.78
2022-10-31T00:43:27.817Z,98496.44
2022-10-31T00:45:54.912Z,98490.50
2022-10-31T00:48:24.703Z,98486.78
2022-10-31T00:50:52.884Z,98496.22
2022-10-31T00:53:19.571Z,98494.97
2022-10-31T00:55:46.931Z,98495.63
2022-10-31T01:00:41.083Z,98499.06
2022-10-31T01:03:08.386Z,98506.94
2022-10-31T01:05:39.539Z,98503.38
2022-10-31T01:08:06.316Z,98495.16
2022-10-31T01:10:33.516Z,98499.72
2022-10-31T01:13:00.369Z,98497.00
2022-10-31T01:15:27.293Z,98495.03
2022-10-31T01:17:53.904Z,98501.75
2022-10-31T01:20:21.459Z,98497.94
2022-10-31T01:22:48.050Z,98493.66
2022-10-31T01:25:14.807Z,98504.78
2022-10-31T01:27:41.758Z,98505.41
2022-10-31T01:30:09.014Z,98495.88
2022-10-31T01:32:35.804Z,98500.69
2022-10-31T01:35:03.553Z,98498.44
2022-10-31T01:37:31.612Z,98492.66
2022-10-31T01:39:58.330Z,98494.78
2022-10-31T01:42:24.966Z,98505.41
2022-10-31T01:44:59.109Z,98504.47
2022-10-31T01:47:42.034Z,98501.63
2022-10-31T01:50:21.103Z,98501.09
2022-10-31T01:52:51.603Z,98504.16
2022-10-31T01:55:41.556Z,98509.59
2022-10-31T01:58:13.209Z,98504.31
2022-10-31T02:00:43.199Z,98501.75
2022-10-31T02:03:10.737Z,98501.53
2022-10-31T02:05:37.440Z,98494.13
2022-10-31T02:08:30.348Z,98500.22
2022-10-31T02:11:02.401Z,98494.06
2022-10-31T02:13:30.446Z,98491.56
2022-10-31T02:16:00.105Z,98491.78
2022-10-31T02:18:31.367Z,98486.66
2022-10-31T02:21:22.872Z,98490.44
2022-10-31T02:24:23.610Z,98486.22
2022-10-31T02:27:00.283Z,98495.50
2022-10-31T02:29:51.239Z,98492.91
2022-10-31T02:32:31.568Z,98488.34
2022-10-31T02:34:58.313Z,98491.75
2022-10-31T02:37:24.813Z,98488.44
2022-10-31T02:40:07.042Z,98490.72
2022-10-31T02:43:21.952Z,98495.03
2022-10-31T02:45:59.836Z,98489.88
2022-10-31T02:48:31.241Z,98491.09
2022-10-31T02:51:01.439Z,98494.19
2022-10-31T02:53:34.410Z,98493.22
2022-10-31T02:56:15.010Z,98499.25
2022-10-31T02:58:50.910Z,98504.56
2022-10-31T03:01:52.207Z,98506.03
2022-10-31T03:04:27.825Z,98508.63
2022-10-31T03:07:16.388Z,98507.94
2022-10-31T03:10:14.518Z,98500.44
2022-10-31T03:12:53.248Z,98510.09
2022-10-31T03:15:35.771Z,98512.03
2022-10-31T03:18:21.895Z,98498.88
2022-10-31T03:20:48.494Z,98513.22
2022-10-31T03:23:16.784Z,98502.69
2022-10-31T03:25:48.605Z,98507.28
2022-10-31T03:30:54.696Z,98507.59
2022-10-31T03:33:28.330Z,98513.22
2022-10-31T03:36:00.893Z,98505.25
2022-10-31T03:38:29.235Z,98509.97
2022-10-31T03:40:59.470Z,98510.72
2022-10-31T03:43:31.195Z,98512.81
2022-10-31T03:45:58.731Z,98511.31
2022-10-31T03:48:26.565Z,98523.75
2022-10-31T03:51:16.298Z,98513.91
2022-10-31T03:53:55.494Z,98516.19
2022-10-31T03:56:31.960Z,98522.84
2022-10-31T03:59:03.233Z,98519.22
2022-10-31T04:01:32.716Z,98519.06
2022-10-31T04:04:00.289Z,98521.13
2022-10-31T04:06:28.546Z,98523.75
2022-10-31T04:09:01.701Z,98531.47
2022-10-31T04:11:32.497Z,98525.28
2022-10-31T04:14:30.842Z,98525.28
2022-10-31T04:16:59.038Z,98523.34
2022-10-31T04:19:35.113Z,98524.59
2022-10-31T04:22:02.444Z,98529.03
2022-10-31T04:24:29.709Z,98525.66
2022-10-31T04:26:58.658Z,98530.53
2022-10-31T04:29:25.975Z,98531.50
2022-10-31T04:31:53.308Z,98535.00
2022-10-31T04:34:19.811Z,98541.56
2022-10-31T04:36:46.491Z,98545.41
2022-10-31T04:39:16.136Z,98543.59
2022-10-31T04:41:50.211Z,98544.69
2022-10-31T04:44:18.869Z,98551.53
2022-10-31T04:46:49.556Z,98558.06
2022-10-31T04:49:16.985Z,98547.31
2022-10-31T04:51:44.310Z,98550.28
2022-10-31T04:54:10.811Z,98549.41
2022-10-31T04:56:40.053Z,98553.72
2022-10-31T04:59:14.084Z,98547.47
2022-10-31T05:01:48.465Z,98549.75
2022-10-31T05:04:18.639Z,98561.16
2022-10-31T05:06:45.347Z,98549.72
2022-10-31T05:09:11.983Z,98550.56
2022-10-31T05:11:38.998Z,98545.47
2022-10-31T05:14:32.299Z,98540.53
2022-10-31T05:17:28.140Z,98543.44
2022-10-31T05:20:27.319Z,98550.09
2022-10-31T05:23:14.134Z,98541.38
2022-10-31T05:25:42.148Z,98541.75
2022-10-31T05:28:08.857Z,98542.59
2022-10-31T05:30:35.675Z,98547.31
2022-10-31T05:33:04.259Z,98545.25
2022-10-31T05:35:49.523Z,98545.97
2022-10-31T05:38:28.939Z,98542.00
2022-10-31T05:41:00.996Z,98549.25
2022-10-31T05:43:30.121Z,98552.13
2022-10-31T05:45:57.443Z,98543.31
2022-10-31T05:48:55.445Z,98544.88
2022-10-31T05:51:43.001Z,98549.13
2022-10-31T05:54:13.349Z,98552.84
2022-10-31T05:56:44.482Z,98554.16
2022-10-31T05:59:11.302Z,98555.44
2022-10-31T06:01:39.691Z,98562.31
2022-10-31T06:04:14.821Z,98561.72
2022-10-31T06:06:43.302Z,98562.34
2022-10-31T06:09:10.256Z,98566.78
2022-10-31T06:11:37.352Z,98570.78
2022-10-31T06:14:05.173Z,98568.41
2022-10-31T06:16:45.656Z,98566.66
2022-10-31T06:19:31.021Z,98564.47
2022-10-31T06:21:59.188Z,98572.09
2022-10-31T06:24:25.875Z,98571.59
2022-10-31T06:27:03.988Z,98574.06
2022-10-31T06:29:33.031Z,98575.84
2022-10-31T06:32:11.503Z,98578.91
2022-10-31T06:34:42.777Z,98576.59
2022-10-31T06:37:13.668Z,98578.50
2022-10-31T06:39:44.155Z,98584.88
2022-10-31T06:42:13.088Z,98587.31
2022-10-31T06:44:39.769Z,98585.84
2022-10-31T06:47:25.182Z,98584.97
2022-10-31T06:50:06.339Z,98581.34
2022-10-31T06:52:33.215Z,98587.75
2022-10-31T06:54:59.939Z,98585.81
2022-10-31T06:57:31.066Z,98580.41
2022-10-31T06:59:57.791Z,98585.75
2022-10-31T07:02:42.926Z,98591.28
2022-10-31T07:05:09.490Z,98588.25
2022-10-31T07:07:36.742Z,98592.34
2022-10-31T07:10:03.474Z,98591.66
2022-10-31T07:13:00.669Z,98597.91
2022-10-31T07:15:31.286Z,98600.84
2022-10-31T07:18:02.908Z,98596.84
2022-10-31T07:20:32.318Z,98610.59
2022-10-31T07:22:59.887Z,98608.72
2022-10-31T07:25:28.083Z,98606.19
2022-10-31T07:28:04.184Z,98601.00
2022-10-31T07:30:31.097Z,98603.47
2022-10-31T07:32:57.797Z,98600.34
2022-10-31T07:35:41.631Z,98610.31
2022-10-31T07:38:18.651Z,98607.72
2022-10-31T07:40:51.681Z,98609.31
2022-10-31T07:43:18.492Z,98597.31
2022-10-31T07:46:05.538Z,98610.91
2022-10-31T07:48:50.610Z,98616.59
2022-10-31T07:51:35.644Z,98620.97
2022-10-31T07:54:34.640Z,98618.00
2022-10-31T07:57:01.415Z,98617.44
2022-10-31T07:59:29.000Z,98618.41
2022-10-31T08:01:55.606Z,98614.13
2022-10-31T08:04:31.217Z,98626.66
2022-10-31T08:07:16.392Z,98620.72
2022-10-31T08:09:49.034Z,98619.19
2022-10-31T08:12:21.712Z,98617.94
2022-10-31T08:14:48.632Z,98619.50
2022-10-31T08:17:18.171Z,98613.38
2022-10-31T08:19:51.549Z,98612.94
2022-10-31T08:22:20.204Z,98613.25
2022-10-31T08:24:48.861Z,98606.94
2022-10-31T08:27:15.472Z,98602.97
2022-10-31T08:29:42.235Z,98614.34
2022-10-31T08:32:09.068Z,98610.06
2022-10-31T08:34:54.390Z,98614.09
2022-10-31T08:37:32.980Z,98613.34
2022-10-31T08:39:59.987Z,98613.84
2022-10-31T08:42:26.701Z,98612.69
2022-10-31T08:44:53.326Z,98612.44
2022-10-31T08:47:22.113Z,98612.78
2022-10-31T08:49:48.946Z,98616.81
2022-10-31T08:52:17.066Z,98611.47
2022-10-31T08:54:46.796Z,98611.16
2022-10-31T08:57:56.521Z,98608.66
2022-10-31T09:00:25.018Z,98605.22
2022-10-31T09:03:18.010Z,98599.63
2022-10-31T09:05:45.125Z,98606.59
2022-10-31T09:08:16.303Z,98600.53
2022-10-31T09:10:45.879Z,98599.94
2022-10-31T09:13:17.818Z,98594.00
2022-10-31T09:16:03.077Z,98596.91
2022-10-31T09:18:32.925Z,98596.84
2022-10-31T09:21:01.145Z,98601.47
2022-10-31T09:23:30.339Z,98603.63
2022-10-31T09:26:00.927Z,98601.00
2022-10-31T09:28:47.524Z,98603.94
2022-10-31T09:31:17.436Z,98598.91
2022-10-31T09:34:19.594Z,98601.13
2022-10-31T09:37:06.462Z,98608.03
2022-10-31T09:39:35.772Z,98610.47
2022-10-31T09:42:26.681Z,98605.16
2022-10-31T09:45:19.151Z,98607.03
2022-10-31T09:48:08.812Z,98620.31
2022-10-31T09:50:48.616Z,98615.19
2022-10-31T09:54:03.642Z,98610.41
2022-10-31T09:56:36.516Z,98600.91
2022-10-31T09:59:06.265Z,98602.25
2022-10-31T10:02:05.847Z,98603.06
2022-10-31T10:04:40.546Z,98606.56
2022-10-31T10:07:42.853Z,98614.44
2022-10-31T10:10:41.616Z,98601.53
2022-10-31T10:13:33.841Z,98607.97
2022-10-31T10:16:10.243Z,98603.41
2022-10-31T10:19:07.152Z,98604.69
2022-10-31T10:21:43.744Z,98606.03
2022-10-31T10:24:19.763Z,98596.81
2022-10-31T10:27:20.731Z,98603.50
2022-10-31T10:30:02.716Z,98600.34
2022-10-31T10:32:35.309Z,98592.06
2022-10-31T10:35:18.266Z,98586.03
2022-10-31T10:37:47.671Z,98584.38
2022-10-31T10:40:14.715Z,98579.53
2022-10-31T10:43:01.373Z,98580.94
2022-10-31T10:45:46.820Z,98577.50
2022-10-31T10:48:40.496Z,98581.06
2022-10-31T10:51:25.719Z,98583.75
2022-10-31T10:54:48.066Z,98575.66
2022-10-31T10:57:33.584Z,98568.53
2022-10-31T11:00:07.402Z,98565.66
2022-10-31T11:02:34.855Z,98566.13
2022-10-31T11:05:04.096Z,98551.50
2022-10-31T11:07:40.910Z,98560.94
2022-10-31T11:10:17.292Z,98563.25
2022-10-31T11:12:46.889Z,98565.97
2022-10-31T11:15:21.349Z,98561.59
2022-10-31T11:17:53.633Z,98566.31
2022-10-31T11:20:20.488Z,98571.66
2022-10-31T11:22:49.404Z,98576.38
2022-10-31T11:25:23.920Z,98571.81
2022-10-31T11:28:06.079Z,98560.88
2022-10-31T11:30:43.825Z,98558.47
2022-10-31T11:33:25.804Z,98569.41
2022-10-31T11:35:57.011Z,98554.59
2022-10-31T11:38:48.443Z,98558.88
2022-10-31T11:41:31.094Z,98552.06
2022-10-31T11:44:01.036Z,98553.19
2022-10-31T11:46:40.546Z,98549.59
2022-10-31T11:49:17.520Z,98541.94
2022-10-31T11:51:48.634Z,98535.56
2022-10-31T11:54:51.928Z,98527.50
2022-10-31T11:57:44.284Z,98529.25
2022-10-31T12:00:25.148Z,98529.44
2022-10-31T12:03:25.609Z,98527.28
2022-10-31T12:06:12.969Z,98516.88
2022-10-31T12:08:41.832Z,98513.41
2022-10-31T12:11:30.288Z,98515.31
2022-10-31T12:14:15.534Z,98512.91
2022-10-31T12:17:15.719Z,98512.19
2022-10-31T12:20:00.308Z,98512.19
2022-10-31T12:22:53.522Z,98504.25
2022-10-31T12:25:29.303Z,98503.09
2022-10-31T12:28:16.091Z,98500.22
2022-10-31T12:31:14.127Z,98505.53
2022-10-31T12:33:52.952Z,98504.53
2022-10-31T12:36:31.351Z,98495.19
2022-10-31T12:39:19.698Z,98487.91
2022-10-31T12:41:49.127Z,98500.06
2022-10-31T12:44:57.580Z,98491.63
2022-10-31T12:47:43.020Z,98491.88
2022-10-31T12:50:26.604Z,98486.91
2022-10-31T16:35:24.609Z,98348.56
2022-10-31T16:37:51.748Z,98340.88
2022-10-31T16:40:18.786Z,98352.16
2022-10-31T16:42:49.597Z,98343.06
2022-10-31T16:45:26.140Z,98340.91
2022-10-31T16:47:53.399Z,98349.31
2022-10-31T16:50:26.070Z,98353.22
2022-10-31T16:53:12.916Z,98340.91
2022-10-31T16:55:45.987Z,98335.09
2022-10-31T16:58:34.753Z,98335.47
2022-10-31T17:01:07.376Z,98337.44
2022-10-31T17:06:34.056Z,98340.16
2022-10-31T17:09:01.554Z,98338.88
2022-10-31T17:11:28.379Z,98339.84
2022-10-31T17:13:56.908Z,98334.94
2022-10-31T17:16:23.847Z,98340.59
2022-10-31T17:18:50.746Z,98336.19
2022-10-31T17:21:23.066Z,98347.06
2022-10-31T17:23:52.866Z,98342.00
2022-10-31T17:26:21.571Z,98337.81
2022-10-31T17:28:48.177Z,98339.94
2022-10-31T17:31:28.214Z,98343.88
2022-10-31T17:34:02.099Z,98345.16
2022-10-31T17:36:31.545Z,98342.63
2022-10-31T17:38:58.287Z,98334.34
2022-10-31T17:41:25.266Z,98335.91
2022-10-31T17:43:59.422Z,98329.84
2022-10-31T17:46:28.608Z,98334.63
2022-10-31T17:49:00.925Z,98331.38
2022-10-31T17:51:27.834Z,98338.16
2022-10-31T17:53:54.520Z,98339.97
2022-10-31T17:56:21.486Z,98332.19
2022-10-31T17:58:48.195Z,98327.41
2022-10-31T18:01:17.769Z,98328.19
2022-10-31T18:03:45.228Z,98324.81
2022-10-31T18:06:14.777Z,98321.88
2022-10-31T18:08:41.397Z,98321.31
2022-10-31T18:11:10.972Z,98320.34
2022-10-31T18:13:39.041Z,98311.44
2022-10-31T18:16:15.747Z,98315.66
2022-10-31T18:18:42.858Z,98309.59
2022-10-31T18:21:09.814Z,98302.91
2022-10-31T18:23:36.449Z,98297.00
2022-10-31T18:26:03.359Z,98290.72
2022-10-31T18:28:30.806Z,98289.56
2022-10-31T18:31:01.017Z,98297.69
2022-10-31T18:33:27.889Z,98298.41
2022-10-31T18:35:54.992Z,98298.28
2022-10-31T18:38:22.406Z,98301.63
2022-10-31T18:40:49.077Z,98309.06
2022-10-31T18:43:15.854Z,98318.00
2022-10-31T18:45:47.894Z,98315.91
2022-10-31T18:48:17.313Z,98301.31
2022-10-31T18:50:44.292Z,98311.91
2022-10-31T18:53:11.220Z,98300.38
2022-10-31T18:55:47.490Z,98292.50
2022-10-31T18:58:17.791Z,98290.41
2022-10-31T19:00:46.013Z,98279.88
2022-10-31T19:03:13.941Z,98286.06
2022-10-31T19:05:40.885Z,98286.47
2022-10-31T19:08:07.893Z,98284.34
2022-10-31T19:10:36.724Z,98280.84
2022-10-31T19:13:03.987Z,98282.25
2022-10-31T19:15:31.304Z,98280.56
2022-10-31T19:17:57.864Z,98272.72
2022-10-31T19:20:24.379Z,98286.34
2022-10-31T19:22:51.202Z,98284.44
2022-10-31T19:25:18.276Z,98284.16
2022-10-31T19:27:44.933Z,98275.63
2022-10-31T19:30:12.757Z,98269.44
2022-10-31T19:32:39.463Z,98273.25
2022-10-31T19:35:09.229Z,98267.22
2022-10-31T19:37:37.173Z,98274.69
2022-10-31T19:40:16.201Z,98274.00
2022-10-31T19:42:43.253Z,98267.91
2022-10-31T19:45:10.058Z,98266.28
2022-10-31T19:47:37.118Z,98269.34
2022-10-31T19:50:05.503Z,98266.00
2022-10-31T19:52:36.087Z,98270.63
2022-10-31T19:55:04.744Z,98264.44
2022-10-31T19:58:00.649Z,98270.47
2022-10-31T20:00:21.600Z,98269.09
2022-10-31T20:02:48.226Z,98269.78
2022-10-31T20:05:15.571Z,98267.69
2022-10-31T20:07:42.546Z,98268.81
2022-10-31T20:10:09.631Z,98267.25
2022-10-31T20:12:36.400Z,98261.47
2022-10-31T20:15:03.613Z,98258.41
2022-10-31T20:17:30.224Z,98269.38
2022-10-31T20:19:56.919Z,98255.31
2022-10-31T20:22:23.818Z,98259.09
2022-10-31T20:24:50.402Z,98265.69
2022-10-31T20:27:17.155Z,98257.47
2022-10-31T20:29:43.783Z,98250.75
2022-10-31T20:32:10.314Z,98255.84
2022-10-31T20:34:36.945Z,98248.88
2022-10-31T20:37:04.423Z,98241.97
2022-10-31T20:39:32.125Z,98244.94
2022-10-31T20:41:58.789Z,98244.66
2022-10-31T20:44:25.496Z,98242.28
2022-10-31T20:46:53.112Z,98244.78
2022-10-31T20:49:19.703Z,98241.31
2022-10-31T20:51:46.371Z,98250.41
2022-10-31T20:54:15.408Z,98239.63
2022-10-31T20:56:42.545Z,98232.31
2022-10-31T20:59:09.307Z,98233.44
2022-10-31T21:01:37.868Z,98222.50
2022-10-31T21:04:05.353Z,98219.25
2022-10-31T21:06:32.570Z,98218.97
2022-10-31T21:08:59.295Z,98225.44
2022-10-31T21:11:27.582Z,98235.53
2022-10-31T21:13:54.346Z,98227.94
2022-10-31T21:16:24.150Z,98228.50
2022-10-31T21:18:52.194Z,98245.66
2022-10-31T21:21:24.151Z,98246.91
2022-10-31T21:23:58.401Z,98238.63
2022-10-31T21:26:27.371Z,98240.00
2022-10-31T21:28:57.627Z,98235.25
2022-10-31T21:31:24.782Z,98232.59
2022-10-31T21:33:51.914Z,98235.25
2022-10-31T21:36:18.919Z,98233.88
2022-10-31T21:38:50.262Z,98227.16
2022-10-31T21:41:18.837Z,98236.25
2022-10-31T21:43:47.852Z,98226.84
2022-10-31T21:46:20.386Z,98228.91
2022-10-31T21:48:48.180Z,98228.09
2022-10-31T21:51:18.343Z,98221.50
2022-10-31T21:54:03.686Z,98218.28
2022-10-31T21:56:31.009Z,98221.22
2022-10-31T21:58:57.913Z,98219.13
2022-10-31T22:01:26.381Z,98219.00
2022-10-31T22:03:53.997Z,98206.78
2022-10-31T22:06:21.553Z,98204.97
2022-10-31T22:08:48.481Z,98196.81
2022-10-31T22:11:17.314Z,98191.22
2022-10-31T22:13:46.290Z,98193.00
2022-10-31T22:16:21.091Z,98189.41
2022-10-31T22:18:51.267Z,98189.97
2022-10-31T22:21:19.904Z,98192.63
2022-10-31T22:23:51.654Z,98191.09
2022-10-31T22:26:18.956Z,98193.59
2022-10-31T22:28:47.876Z,98196.56
2022-10-31T22:31:17.995Z,98199.09
2022-10-31T22:33:46.029Z,98198.38
2022-10-31T22:36:15.434Z,98202.84
2022-10-31T22:38:42.770Z,98201.47
2022-10-31T22:41:12.492Z,98200.75
2022-10-31T22:43:39.352Z,98184.09
2022-10-31T22:46:08.189Z,98187.00
2022-10-31T22:48:39.089Z,98182.53
2022-10-31T22:51:07.635Z,98176.19
2022-10-31T22:53:35.474Z,98166.66
2022-10-31T22:56:03.992Z,98165.94
2022-10-31T22:58:31.642Z,98163.41
2022-10-31T23:00:59.119Z,98165.13
2022-10-31T23:03:26.323Z,98176.91
2022-10-31T23:06:06.431Z,98180.28
2022-10-31T23:08:36.231Z,98175.50
2022-10-31T23:11:13.356Z,98169.84
2022-10-31T23:13:58.611Z,98180.50
2022-10-31T23:16:25.482Z,98177.91
2022-10-31T23:18:52.107Z,98184.22
2022-10-31T23:21:38.037Z,98184.78
2022-10-31T23:24:04.908Z,98180.41
2022-10-31T23:26:50.496Z,98180.09
2022-10-31T23:29:17.104Z,98187.69
2022-10-31T23:31:43.628Z,98184.59
2022-10-31T23:34:10.339Z,98180.09
2022-10-31T23:36:37.914Z,98181.66
2022-10-31T23:39:04.711Z,98174.63
2022-10-31T23:41:31.329Z,98161.09
2022-10-31T23:43:57.925Z,98171.19
2022-10-31T23:46:24.547Z,98169.13
2022-10-31T23:48:51.310Z,98159.88
2022-10-31T23:51:17.980Z,98159.72
2022-10-31T23:53:47.338Z,98154.03
2022-10-31T23:56:15.059Z,98156.25
2022-10-31T23:58:42.033Z,98163.81
